Airfield :
LOGIN :

Register | Disclaimer

   EN    FR    IT 

 










Legend :    VFR   Marginal VFR   IFR   Intensive IFR   Very Intensive IFR
Visi :
Ceiling :
>= 8 km
>= 3000ft
5 to 8 km
1000 to 3000 ft
1500m to 5 km
500 to 1000 ft
800 to 1500m
200 to 500 ft
< 800m
< 200 ft
Symbols :   Thunderstorms  Fog  Heavy snow  Heavy precipitations  Wind > 20 kt
SIGMETs :     Misc.  Thunderstorms  Icing  Turbulence  Mountain Waves  Volcanic Ashes







- Airport Elevation : 49 ft
- IATA code : SEN
- Download approach charts


EGMC - Southend

CURRENT METAR :
  • 221950Z 23010KT CAVOK 16/11 Q1010

EXPIRED METARs :
  • 221920Z 24013KT CAVOK 17/10 Q1009
  • 221850Z 23015KT CAVOK 18/10 Q1009
  • 221820Z 24012KT CAVOK 18/10 Q1008
  • 221750Z 21013KT CAVOK 19/10 Q1008
  • 221720Z 22015KT CAVOK 20/10 Q1008

TAF TAF EGMC
Valid from the 22 at 18:00 until the 23 at 03:00 UTC


221658Z 2218/2303 24012KT 9999 FEW040
PROB30
TEMPO 2218/2219 7000 SHRA
No reported NOTAMs for that airfield.
1 SIGMET reported for the London FIR (EGTT) :
 
Embedded thunderstorms
EGTT SIGMET 04 VALID 221900/222200 EGRR
EGTT LONDON FIR EMBD TS FCST WI N5455 E00437 - N5237 E00248 - N5237 E00123 - N5456 E00245 - N5455 E00437 TOP FL310 MOV ENE 30KT NC=



MET'MAP, your aeronautical weather chart ! - Copyright ORBIFLY December 2007 - Disclaimer

ORBIFLY MET'MAP TEAM :

Programming & Development : Alexandra Zaïnal
Concept & Development : Baudouin d'Aumeries
Co-Development & Prog : Marc-Olivier Méhu
Technical & hardware support : Manuel Goepfert

Contact : metmap@orbifly.com




SOURCES & CREDITS :

   NOAA